Flight Track Log - Related Links

Times and Time Zones

All times are in EDT time to prevent confusion due to time zone crossing. See the ASQ5181 flight status page for this flight to view local times or setup timezone preferences in your user account.

Time Position Orientation Groundspeed Altitude Reporting Facility
EDT Latitude Longitude Course Direction KTS MPH feet Rate Location/Type
Sat 04:51:18 PM 33.6500 -84.4833 284° West 190 219 2,900  Level Atlanta TRACON
Sat 04:52:13 PM 33.6667 -84.5667 284° West 256 295 5,200 2,713 Climbing Atlanta TRACON
Sat 04:53:13 PM 33.6833 -84.6500 284° West 270 311 8,100 2,543 Climbing Atlanta TRACON
Sat 04:54:44 PM 33.6397 -84.7872 249° West 293 337 11,600 1,987 Climbing Atlanta Center
Sat 04:55:44 PM 33.6056 -84.8967 249° West 332 382 13,100 1,600 Climbing Atlanta Center
Sat 04:56:44 PM 33.5733 -85.0136 252° West 368 423 14,800 1,800 Climbing Atlanta Center
Sat 04:57:44 PM 33.5367 -85.1378 251° West 385 443 16,700 1,750 Climbing Atlanta Center
Sat 04:58:44 PM 33.5064 -85.2519 252° West 399 459 18,300 1,500 Climbing Atlanta Center
Sat 04:59:44 PM 33.4864 -85.3839 260° West 404 465 19,700 1,350 Climbing Atlanta Center
Sat 05:00:44 PM 33.4639 -85.5278 259° West 420 483 21,000 1,350 Climbing Atlanta Center
Sat 05:01:44 PM 33.4411 -85.6719 259° West 441 507 22,400 1,450 Climbing Atlanta Center
Sat 05:02:44 PM 33.4206 -85.8108 260° West 441 507 23,900 1,500 Climbing Atlanta Center
Sat 05:03:44 PM 33.3953 -85.9522 258° West 441 507 25,400 1,500 Climbing Atlanta Center
Sat 05:04:44 PM 33.3742 -86.0983 260° West 441 507 26,900 1,500 Climbing Atlanta Center
Sat 05:05:44 PM 33.3486 -86.2472 258° West 452 520 28,400 1,450 Climbing Atlanta Center
Sat 05:06:44 PM 33.3272 -86.3883 260° West 446 513 29,800 1,300 Climbing Atlanta Center
Sat 05:07:44 PM 33.3014 -86.5342 258° West 446 513 31,000 1,200 Climbing Atlanta Center
Sat 05:08:44 PM 33.2797 -86.6728 259° West 446 513 32,200 1,200 Climbing Atlanta Center
Sat 05:09:44 PM 33.2558 -86.8186 259° West 446 513 33,400 1,200 Climbing Atlanta Center
Sat 05:10:44 PM 33.2253 -86.9567 255° West 446 513 34,600 1,150 Climbing Atlanta Center
Sat 05:11:44 PM 33.1594 -87.0958 241° Southwest 440 506 35,700 700 Climbing Atlanta Center
Sat 05:12:44 PM 33.1019 -87.2228 242° Southwest 435 501 36,000 150 Climbing Atlanta Center
Sat 05:13:44 PM 33.0442 -87.3544 242° Southwest 440 506 36,000  Level Atlanta Center
Sat 05:14:44 PM 32.9950 -87.4714 243° Southwest 447 514 36,000  Level Atlanta Center
Sat 05:15:56 PM 32.9117 -87.6428 240° Southwest 446 513 36,000  Level Memphis Center
Sat 05:16:56 PM 32.8539 -87.7756 243° Southwest 446 513 36,000  Level Memphis Center
Sat 05:17:56 PM 32.7939 -87.9033 241° Southwest 451 519 36,000  Level Memphis Center
Sat 05:18:56 PM 32.7439 -88.0208 243° Southwest 446 513 36,000  Level Memphis Center
Sat 05:19:56 PM 32.6856 -88.1506 242° Southwest 446 513 36,000  Level Memphis Center
Sat 05:20:56 PM 32.6253 -88.2778 241° Southwest 446 513 36,000  Level Memphis Center
Sat 05:21:56 PM 32.5647 -88.4050 241° Southwest 446 513 36,000  Level Memphis Center
Sat 05:22:56 PM 32.5061 -88.5319 241° Southwest 446 513 36,000  Level Memphis Center
Sat 05:23:56 PM 32.4475 -88.6611 242° Southwest 446 513 36,000  Level Memphis Center
Sat 05:24:56 PM 32.3864 -88.7878 240° Southwest 441 507 36,000  Level Memphis Center
Sat 05:25:56 PM 32.3442 -88.9214 250° West 436 502 36,000  Level Memphis Center
Sat 05:26:56 PM 32.3019 -89.0744 252° West 443 510 36,000  Level Memphis Center
Sat 05:27:56 PM 32.2617 -89.2100 251° West 450 518 36,000  Level Memphis Center
Sat 05:28:56 PM 32.2211 -89.3481 251° West 450 518 36,000  Level Memphis Center
Sat 05:29:56 PM 32.1825 -89.4836 251° West 445 512 36,000  Level Memphis Center
Sat 05:30:56 PM 32.1417 -89.6189 250° West 445 512 36,000  Level Memphis Center
Sat 05:31:56 PM 32.1025 -89.7517 251° West 445 512 36,000  Level Memphis Center
Sat 05:32:56 PM 32.0636 -89.8867 251° West 445 512 36,000  Level Memphis Center
Sat 05:33:56 PM 32.0222 -90.0217 250° West 445 512 36,000  Level Memphis Center
Sat 05:34:56 PM 31.9828 -90.1567 251° West 445 512 36,000  Level Memphis Center
Sat 05:35:56 PM 31.9433 -90.2936 251° West 445 512 36,000  Level Memphis Center
Sat 05:37:31 PM 31.8858 -90.4806 250° West 436 502 36,000  Level Houston Center
Sat 05:38:33 PM 31.8464 -90.6153 251° West 437 503 36,000  Level Houston Center
Sat 05:39:35 PM 31.7964 -90.7753 250° West 437 503 36,000  Level Houston Center
Sat 05:40:37 PM 31.7578 -90.9081 251° West 435 501 36,000  Level Houston Center
Sat 05:41:39 PM 31.7167 -91.0414 250° West 435 501 36,000  Level Houston Center
Sat 05:42:40 PM 31.6711 -91.1886 250° West 436 502 36,000  Level Houston Center
Sat 05:43:42 PM 31.6303 -91.3222 250° West 434 499 36,000  Level Houston Center
Sat 05:44:44 PM 31.5889 -91.4547 250° West 433 498 36,000  Level Houston Center
Sat 05:45:46 PM 31.5464 -91.5869 249° West 434 499 36,000  Level Houston Center
Sat 05:46:48 PM 31.5056 -91.7194 250° West 433 498 36,000  Level Houston Center
Sat 05:47:49 PM 31.4639 -91.8514 250° West 430 495 36,000  Level Houston Center
Sat 05:48:51 PM 31.4125 -92.0111 249° West 433 498 36,000  Level Houston Center
Sat 05:49:53 PM 31.3750 -92.1250 249° West 427 491 36,000  Level Houston Center
Sat 05:50:55 PM 31.3261 -92.2792 250° West 431 496 36,000  Level Houston Center
Sat 05:51:56 PM 31.2828 -92.4117 249° West 438 504 36,000  Level Houston Center
Sat 05:52:58 PM 31.2381 -92.5425 248° West 438 504 36,000  Level Houston Center
Sat 05:54:00 PM 31.1864 -92.6703 245° Southwest 436 502 36,000  Level Houston Center
Sat 05:55:02 PM 31.1353 -92.7969 245° Southwest 435 501 36,000  Level Houston Center
Sat 05:56:04 PM 31.0842 -92.9244 245° Southwest 435 501 36,000  Level Houston Center
Sat 05:57:05 PM 31.0244 -93.0756 245° Southwest 432 497 36,000  Level Houston Center
Sat 05:58:07 PM 30.9742 -93.2011 245° Southwest 430 495 36,000  Level Houston Center
Sat 05:59:09 PM 30.9225 -93.3258 244° Southwest 431 496 36,000 -532 Level Houston Center
Sat 06:00:11 PM 30.8711 -93.4522 245° Southwest 434 499 34,900 -1,645 Descending Houston Center
Sat 06:01:13 PM 30.8192 -93.5792 245° Southwest 437 503 32,600 -2,146 Descending Houston Center
Sat 06:02:14 PM 30.7683 -93.7033 245° Southwest 432 497 30,500 -2,341 Descending Houston Center
Sat 06:03:16 PM 30.7075 -93.8494 244° Southwest 425 489 27,800 -2,371 Descending Houston Center
Sat 06:04:18 PM 30.6581 -93.9714 245° Southwest 420 483 25,600 -2,129 Descending Houston Center
Sat 06:05:20 PM 30.6086 -94.0922 245° Southwest 417 480 23,400 -2,211 Descending Houston Center
Sat 06:05:53 PM 30.5761 -94.1689 244° Southwest 417 480 22,100 -2,066 Descending Houston Center
Sat 06:06:21 PM 30.5586 -94.2131 245° Southwest 417 480 21,300 -1,964 Descending Houston Center
Sat 06:06:48 PM 30.5322 -94.2769 244° Southwest 415 478 20,300 -1,935 Descending Houston Center
Sat 06:07:23 PM 30.5092 -94.3308 244° Southwest 408 470 19,300 -2,073 Descending Houston Center
Sat 06:07:43 PM 30.4844 -94.3900 244° Southwest 406 467 18,400 -1,935 Descending Houston Center
Sat 06:08:25 PM 30.4597 -94.4483 244° Southwest 406 467 17,300 -1,967 Descending Houston Center
Sat 06:08:44 PM 30.4353 -94.5081 245° Southwest 407 468 16,400 -2,262 Descending Houston Center
Sat 06:09:26 PM 30.4014 -94.5872 244° Southwest 406 467 15,000 -1,935 Descending Houston Center
Sat 06:09:46 PM 30.3856 -94.6258 245° Southwest 406 467 14,400 -1,839 Descending Houston Center
Sat 06:10:28 PM 30.3542 -94.7022 245° Southwest 400 460 13,100 -1,400 Descending Houston Center
Sat 06:10:46 PM 30.3378 -94.7386 242° Southwest 391 450 13,000 -484 Descending Houston Center
Sat 06:11:30 PM 30.3047 -94.8158 244° Southwest 396 456 12,600 -787 Descending Houston Center
Sat 06:11:47 PM 30.2775 -94.8553 231° Southwest 393 452 12,200 -1,180 Descending Houston Center
Sat 06:12:31 PM 30.2397 -94.9139 233° Southwest 387 445 11,400 -1,355 Descending Houston Center
Sat 06:12:49 PM 30.2133 -94.9553 234° Southwest 379 436 10,800 -1,258 Descending Houston Center
Sat 06:13:33 PM 30.1769 -95.0114 233° Southwest 381 438 10,100 -787 Descending Houston Center
Sat 06:13:50 PM 30.1489 -95.0503 230° Southwest 372 428 10,000 -98 Descending Houston Center
Sat 06:14:34 PM 30.0997 -95.0856 212° Southwest 374 430 10,000  Level Houston Center
Sat 06:14:51 PM 30.0592 -95.1025 200° South 365 420 10,000  Level Houston Center
Sat 06:15:36 PM 29.9867 -95.1353 201° Southwest 366 421 10,000  Level Houston Center
Sat 06:15:52 PM 29.9581 -95.1461 198° South 365 420 10,000  Level Houston Center
Sat 06:16:37 PM 29.8931 -95.1753 201° Southwest 361 415 10,000  Level Houston Center
Sat 06:16:53 PM 29.8675 -95.1864 201° Southwest 310 357 10,000 -774 Level Houston Center
Sat 06:17:39 PM 29.8183 -95.2078 201° Southwest 300 345 9,200 -1,377 Descending Houston Center
Sat 06:17:54 PM 29.7925 -95.2172 198° South 269 310 8,600 -1,645 Descending Houston Center
Sat 06:18:41 PM 29.7489 -95.2378 202° Southwest 274 315 7,500 -1,548 Descending Houston Center
Sat 06:18:56 PM 29.7239 -95.2472 198° South 262 302 7,000 -1,377 Descending Houston Center
Sat 06:19:42 PM 29.6833 -95.2658 202° Southwest 260 299 6,100 -984 Descending Houston Center
Sat 06:19:57 PM 29.6575 -95.2769 200° South 251 289 6,000 -97 Descending Houston Center
Sat 06:20:44 PM 29.6392 -95.3200 244° Southwest 268 308 6,000 -889 Level Houston Center
Sat 06:21:45 PM 29.6503 -95.4039 279° West 248 285 4,400 -1,707 Descending Houston Center
Sat 06:22:47 PM 29.6997 -95.4283 337° Northwest 219 252 2,500 -1,073 Descending Houston Center
Sat 06:23:48 PM 29.7147 -95.3736 72° East 196 226 2,200 -537 Descending Houston Center
Sat 06:24:50 PM 29.6928 -95.3350 123° Southeast 161 185 1,400 -774 Descending Houston Center
Sat 06:25:52 PM 29.6661 -95.3042 135° Southeast 145 167 600 -634 Descending Houston Center
Sat 06:26:53 PM 29.6367 -95.2689 134° Southeast 140 161 100 -492 Descending Houston Center

Login

Don't have an account? Register now (free) for customized features, flight alerts, and more!